Time;durP1;ratioP1;P1;durP2;ratioP2;P2;SDS_P1;SDS_P2;PMS_P1;PMS_P2;Temp;Humidity;BMP_temperature;BMP_pressure;BME280_temperature;BME280_humidity;BME280_pressure;Samples;Min_cycle;Max_cycle;Signal;HPM_P1;HPM_P2
2021/03/24 00:02:14;;;;;;;69.25;32.88;;;-1.40;99.90;;;;;;4906824;29;20063;-85
2021/03/24 00:04:41;;;;;;;66.57;32.83;;;-1.30;99.90;;;;;;4922425;29;20130;-84
2021/03/24 00:07:11;;;;;;;66.53;33.17;;;-1.30;99.90;;;;;;4921034;29;20119;-85
2021/03/24 00:09:38;;;;;;;66.10;31.13;;;-1.30;99.90;;;;;;4937287;29;20138;-86
2021/03/24 00:12:16;;;;;;;65.80;31.83;;;-1.30;99.90;;;;;;4906222;29;20102;-86
2021/03/24 00:14:43;;;;;;;67.75;33.05;;;-1.40;99.90;;;;;;4905264;29;20096;-85
2021/03/24 00:17:15;;;;;;;69.53;33.42;;;-1.40;99.90;;;;;;4933693;29;20382;-85
2021/03/24 00:19:45;;;;;;;69.47;31.25;;;-1.50;99.90;;;;;;4920379;29;20051;-86
2021/03/24 00:22:18;;;;;;;67.35;31.25;;;-1.50;99.90;;;;;;4905564;29;20079;-86
2021/03/24 00:24:48;;;;;;;70.60;32.20;;;-1.60;99.90;;;;;;4937733;29;20138;-84
2021/03/24 00:27:14;;;;;;;71.95;31.95;;;-1.60;99.90;;;;;;4905349;29;20043;-86
2021/03/24 00:29:43;;;;;;;62.45;29.70;;;-1.60;99.90;;;;;;4904862;29;20075;-85
2021/03/24 00:32:12;;;;;;;67.28;29.85;;;-1.50;99.90;;;;;;4933509;29;20052;-86
2021/03/24 00:34:42;;;;;;;70.35;30.10;;;-1.50;99.90;;;;;;4933415;29;20048;-87
2021/03/24 00:37:12;;;;;;;65.38;28.70;;;-1.50;99.90;;;;;;4934334;29;20474;-86
2021/03/24 00:39:38;;;;;;;58.50;28.73;;;-1.40;99.90;;;;;;4919407;29;20052;-86
2021/03/24 00:42:11;;;;;;;63.25;27.45;;;-1.50;99.90;;;;;;4936029;29;20048;-86
2021/03/24 00:44:38;;;;;;;65.53;28.40;;;-1.50;99.90;;;;;;4917866;29;20044;-86
2021/03/24 00:47:13;;;;;;;67.25;29.55;;;-1.60;99.90;;;;;;4932545;29;20083;-86
2021/03/24 00:49:40;;;;;;;65.03;28.90;;;-1.70;99.90;;;;;;4913465;29;20059;-85
2021/03/24 00:52:26;;;;;;;61.35;28.40;;;-1.70;99.90;;;;;;4930770;29;20047;-85
2021/03/24 00:54:55;;;;;;;67.63;30.23;;;-1.70;99.90;;;;;;4904566;29;20087;-85
2021/03/24 00:57:21;;;;;;;76.85;34.00;;;-1.70;99.90;;;;;;4920462;29;20055;-86
2021/03/24 00:59:48;;;;;;;68.78;31.50;;;-1.70;99.90;;;;;;4904196;29;20087;-87
2021/03/24 01:02:18;;;;;;;76.32;32.65;;;-1.70;99.90;;;;;;4905180;29;20051;-85
2021/03/24 01:04:45;;;;;;;74.53;33.08;;;-1.70;99.90;;;;;;4904934;29;20060;-86
2021/03/24 01:07:16;;;;;;;70.63;32.13;;;-1.70;99.90;;;;;;4930253;29;20131;-85
2021/03/24 01:09:45;;;;;;;68.70;30.67;;;-1.70;99.90;;;;;;4915707;29;20111;-85
2021/03/24 01:12:14;;;;;;;75.28;32.72;;;-1.80;99.90;;;;;;4937792;29;20067;-85
2021/03/24 01:14:40;;;;;;;65.43;27.98;;;-1.80;99.90;;;;;;4920852;29;20070;-86
2021/03/24 01:17:16;;;;;;;63.05;29.73;;;-1.90;99.90;;;;;;4920707;29;20425;-86
2021/03/24 01:19:43;;;;;;;69.18;29.08;;;-1.80;99.90;;;;;;4923161;29;20119;-87
2021/03/24 01:22:13;;;;;;;66.40;29.33;;;-1.80;99.90;;;;;;4924705;29;20079;-87
2021/03/24 01:24:39;;;;;;;62.25;29.13;;;-1.80;99.90;;;;;;4917808;29;20094;-86
2021/03/24 01:27:15;;;;;;;76.35;31.75;;;-1.70;99.90;;;;;;4921750;29;20051;-86
2021/03/24 01:29:43;;;;;;;67.90;32.08;;;-1.80;99.90;;;;;;4954287;29;20048;-87
2021/03/24 01:32:12;;;;;;;81.32;35.20;;;-1.80;99.90;;;;;;4934329;29;20052;-86
2021/03/24 01:34:40;;;;;;;68.68;35.20;;;-1.80;99.90;;;;;;4926369;29;20142;-87
2021/03/24 01:37:14;;;;;;;78.82;36.67;;;-1.70;99.90;;;;;;4922748;29;20131;-87
2021/03/24 01:39:41;;;;;;;87.40;37.95;;;-1.60;99.90;;;;;;4921820;29;20146;-87
2021/03/24 01:42:14;;;;;;;88.80;37.30;;;-1.50;99.90;;;;;;4920372;29;20374;-86
2021/03/24 01:45:20;;;;;;;81.53;40.15;;;-1.50;99.90;;;;;;4919821;29;20060;-86
2021/03/24 01:47:47;;;;;;;85.15;38.25;;;-1.50;99.90;;;;;;4931191;29;20059;-85
2021/03/24 01:50:25;;;;;;;81.63;36.85;;;-1.50;99.90;;;;;;4936362;29;20051;-86
2021/03/24 01:53:12;;;;;;;72.90;34.50;;;-1.60;99.90;;;;;;4916961;29;20066;-86
2021/03/24 01:55:41;;;;;;;70.72;33.00;;;-1.70;99.90;;;;;;4937319;29;20356;-86
2021/03/24 01:58:14;;;;;;;72.90;32.28;;;-1.70;99.90;;;;;;4936338;29;20067;-86
2021/03/24 02:00:42;;;;;;;;;;;-1.80;99.90;;;;;;4920191;29;20493;-86
2021/03/24 02:03:13;;;;;;;76.18;32.35;;;-1.80;99.90;;;;;;4920244;29;19931;-86
2021/03/24 02:05:46;;;;;;;72.47;33.50;;;-1.80;99.90;;;;;;4923848;29;20066;-88
2021/03/24 02:08:23;;;;;;;74.32;34.78;;;-1.70;99.90;;;;;;4923451;29;20107;-84
2021/03/24 02:10:55;;;;;;;75.85;36.88;;;-1.70;99.90;;;;;;4939824;29;20523;-84
2021/03/24 02:13:28;;;;;;;82.18;36.33;;;-1.70;99.90;;;;;;4923310;29;20052;-87
2021/03/24 02:16:29;;;;;;;84.18;39.38;;;-1.60;99.90;;;;;;4923153;29;20075;-86
2021/03/24 02:19:21;;;;;;;90.13;41.03;;;-1.50;99.90;;;;;;4922472;29;20055;-86
2021/03/24 02:21:51;;;;;;;93.15;41.10;;;-1.30;99.90;;;;;;4939616;29;20473;-86
2021/03/24 02:24:52;;;;;;;93.25;41.28;;;-1.30;99.90;;;;;;4940080;29;20074;-87
2021/03/24 02:27:26;;;;;;;84.90;38.78;;;-1.30;99.90;;;;;;4922479;29;20052;-86
2021/03/24 02:30:11;;;;;;;80.88;37.78;;;-1.40;99.90;;;;;;4939664;29;20083;-87
2021/03/24 02:32:45;;;;;;;83.30;35.03;;;-1.40;99.90;;;;;;4923178;29;20101;-86
2021/03/24 02:35:22;;;;;;;73.70;32.65;;;-1.40;99.90;;;;;;4940061;29;20071;-89
2021/03/24 02:37:51;;;;;;;82.88;36.78;;;-1.50;99.90;;;;;;4923024;29;20425;-88
2021/03/24 02:40:20;;;;;;;78.65;37.88;;;-1.60;99.90;;;;;;4923360;29;20123;-86
2021/03/24 02:42:49;;;;;;;77.65;37.20;;;-1.70;99.90;;;;;;4923428;29;20055;-87
2021/03/24 02:45:22;;;;;;;78.80;38.70;;;-1.70;99.90;;;;;;4923178;29;20055;-87
2021/03/24 02:47:50;;;;;;;83.35;39.20;;;-1.80;99.90;;;;;;4923865;29;20457;-88
2021/03/24 02:50:22;;;;;;;85.95;40.90;;;-1.80;99.90;;;;;;4923049;29;20461;-88
2021/03/24 02:52:49;;;;;;;81.60;35.72;;;-1.70;99.90;;;;;;4939860;29;20142;-87
2021/03/24 02:55:22;;;;;;;74.78;34.47;;;-1.70;99.90;;;;;;4934659;29;20340;-87
2021/03/24 02:57:48;;;;;;;;;;;-1.80;99.90;;;;;;4928646;29;20055;-86
2021/03/24 03:00:19;;;;;;;76.53;33.10;;;-1.80;99.90;;;;;;4937776;29;19923;-87
2021/03/24 03:03:19;;;;;;;64.55;33.58;;;-1.80;99.90;;;;;;4940013;29;20119;-86
2021/03/24 03:05:47;;;;;;;69.43;34.78;;;-1.90;99.90;;;;;;4923552;29;20052;-87
2021/03/24 03:08:21;;;;;;;77.72;36.20;;;-1.90;99.90;;;;;;4922192;29;20062;-88
2021/03/24 03:11:25;;;;;;;76.05;36.85;;;-1.90;99.90;;;;;;4922377;29;20107;-88
2021/03/24 03:14:35;;;;;;;88.63;40.53;;;-1.90;99.90;;;;;;4923056;29;20063;-87
2021/03/24 03:17:24;;;;;;;88.32;40.72;;;-1.70;99.90;;;;;;4939433;29;20437;-90
2021/03/24 03:20:19;;;;;;;90.78;42.30;;;-1.70;99.90;;;;;;4940693;29;20094;-86
2021/03/24 03:22:53;;;;;;;99.75;43.83;;;-1.70;99.90;;;;;;4951616;29;20053;-88
2021/03/24 03:25:24;;;;;;;98.78;43.97;;;-1.60;99.90;;;;;;4936556;29;20070;-88
2021/03/24 03:27:54;;;;;;;95.57;43.40;;;-1.60;99.90;;;;;;4930605;29;20066;-88
2021/03/24 03:30:27;;;;;;;96.32;44.20;;;-1.60;99.90;;;;;;4925419;29;20074;-89
2021/03/24 03:33:18;;;;;;;103.07;44.10;;;-1.60;99.90;;;;;;4922852;29;20210;-89
2021/03/24 03:35:45;;;;;;;101.63;43.80;;;-1.60;99.90;;;;;;4926944;29;20055;-87
2021/03/24 03:38:17;;;;;;;93.82;41.70;;;-1.70;99.90;;;;;;4896862;29;20428;-87
2021/03/24 03:40:45;;;;;;;105.68;46.28;;;-1.80;99.90;;;;;;4928811;29;20074;-89
2021/03/24 03:43:15;;;;;;;99.90;45.78;;;-1.80;99.90;;;;;;4933384;29;20051;-87
2021/03/24 03:45:45;;;;;;;97.47;42.63;;;-1.70;99.90;;;;;;4927369;29;20051;-87
2021/03/24 03:48:13;;;;;;;108.05;46.72;;;-1.80;99.90;;;;;;4933849;29;20111;-86
2021/03/24 03:50:44;;;;;;;100.35;46.13;;;-1.60;99.90;;;;;;4936451;29;20359;-86
2021/03/24 03:53:38;;;;;;;104.65;46.58;;;-1.50;99.90;;;;;;4937386;29;20079;-87
2021/03/24 03:56:35;;;;;;;113.28;48.17;;;-1.60;99.90;;;;;;4920016;29;20056;-87
2021/03/24 03:59:31;;;;;;;112.10;49.15;;;-1.60;99.90;;;;;;4919893;29;20059;-87
2021/03/24 04:02:30;;;;;;;116.55;49.40;;;-1.40;99.90;;;;;;4936652;29;20103;-86
2021/03/24 04:05:20;;;;;;;117.15;49.42;;;-1.40;99.90;;;;;;4937933;29;20377;-87
2021/03/24 04:08:17;;;;;;;118.53;49.67;;;-1.50;99.90;;;;;;4919552;29;20074;-87
2021/03/24 04:10:56;;;;;;;114.63;48.35;;;-1.50;99.90;;;;;;4919903;29;20048;-87
2021/03/24 04:13:45;;;;;;;121.88;52.42;;;-1.50;99.90;;;;;;4918509;29;20494;-88
2021/03/24 04:16:18;;;;;;;119.97;54.55;;;-1.50;99.90;;;;;;4933755;29;20048;-87
2021/03/24 04:18:53;;;;;;;114.75;52.95;;;-1.50;99.90;;;;;;4905530;29;20044;-87
2021/03/24 04:21:22;;;;;;;127.25;54.58;;;-1.50;99.90;;;;;;4936118;29;20051;-87
2021/03/24 04:23:56;;;;;;;128.18;54.50;;;-1.50;99.90;;;;;;4938704;29;20122;-88
2021/03/24 04:26:27;;;;;;;129.90;55.20;;;-1.40;99.90;;;;;;4938298;29;20059;-87
2021/03/24 04:29:14;;;;;;;125.88;54.25;;;-1.40;99.90;;;;;;4921397;29;20044;-85
2021/03/24 04:31:54;;;;;;;130.13;55.35;;;-1.20;99.90;;;;;;4935445;29;20051;-87
2021/03/24 04:34:22;;;;;;;118.75;54.78;;;-1.00;99.90;;;;;;4921122;29;20047;-87
2021/03/24 04:37:11;;;;;;;124.70;53.67;;;-1.10;99.90;;;;;;4921518;29;20521;-87
2021/03/24 04:39:42;;;;;;;134.90;56.47;;;-1.00;99.90;;;;;;4931468;29;20072;-87
2021/03/24 04:42:22;;;;;;;122.43;53.47;;;-0.90;99.90;;;;;;4938579;29;20099;-86
2021/03/24 04:44:54;;;;;;;127.97;53.40;;;-1.00;99.90;;;;;;4939498;29;20119;-88
2021/03/24 04:47:32;;;;;;;122.57;53.65;;;-1.00;99.90;;;;;;4939364;29;20047;-87
2021/03/24 04:50:25;;;;;;;120.95;53.45;;;-1.00;99.90;;;;;;4924471;29;20059;-87
2021/03/24 04:53:13;;;;;;;118.40;53.45;;;-1.00;99.90;;;;;;4947292;29;20091;-87
2021/03/24 04:55:43;;;;;;;107.60;49.35;;;-1.00;99.90;;;;;;4931630;29;20153;-85
2021/03/24 04:58:29;;;;;;;119.57;51.45;;;-1.00;99.90;;;;;;4928857;29;20406;-86
2021/03/24 05:01:14;;;;;;;115.15;49.13;;;-0.90;99.90;;;;;;4924813;29;20055;-86
2021/03/24 05:03:45;;;;;;;116.43;48.97;;;-1.00;99.90;;;;;;4937256;29;20083;-86
2021/03/24 05:06:35;;;;;;;109.10;47.03;;;-1.00;99.90;;;;;;4937930;29;20537;-86
2021/03/24 05:09:15;;;;;;;114.85;53.00;;;-1.20;99.90;;;;;;4906216;29;20103;-88
2021/03/24 05:12:24;;;;;;;104.40;50.97;;;-1.20;99.90;;;;;;4938056;29;20134;-88
2021/03/24 05:15:17;;;;;;;92.72;41.50;;;-1.30;99.90;;;;;;4865366;29;20167;-89
2021/03/24 05:17:45;;;;;;;98.43;42.72;;;-1.40;99.90;;;;;;4937148;29;20381;-86
2021/03/24 05:20:26;;;;;;;97.47;42.28;;;-1.60;99.90;;;;;;4935837;29;20075;-86
2021/03/24 05:22:54;;;;;;;103.43;42.58;;;-1.70;99.90;;;;;;4929347;29;20127;-86
2021/03/24 05:25:46;;;;;;;92.88;39.65;;;-1.70;99.90;;;;;;4914397;29;20138;-86
2021/03/24 05:28:28;;;;;;;90.22;41.55;;;-1.80;99.90;;;;;;4930796;29;20094;-87
2021/03/24 05:31:15;;;;;;;91.68;41.45;;;-1.90;99.90;;;;;;4932097;29;20414;-87
2021/03/24 05:33:51;;;;;;;90.65;40.35;;;-1.90;99.90;;;;;;4949652;29;20044;-86
2021/03/24 05:36:32;;;;;;;86.13;41.20;;;-2.00;99.90;;;;;;4948387;29;20143;-87
2021/03/24 05:39:20;;;;;;;91.78;39.55;;;-2.00;99.90;;;;;;4923149;29;20118;-81
2021/03/24 05:42:14;;;;;;;102.40;42.15;;;-2.00;99.90;;;;;;4922841;29;20060;-82
2021/03/24 05:44:59;;;;;;;97.13;43.05;;;-1.90;99.90;;;;;;4926209;29;20047;-82
2021/03/24 05:47:42;;;;;;;97.90;42.83;;;-1.90;99.90;;;;;;4921426;29;20075;-83
2021/03/24 05:50:32;;;;;;;101.75;46.40;;;-1.90;99.90;;;;;;4925337;29;20096;-83
2021/03/24 05:53:40;;;;;;;109.80;46.25;;;-1.80;99.90;;;;;;4924695;29;20056;-83
2021/03/24 05:56:30;;;;;;;114.13;46.72;;;-1.70;99.90;;;;;;4943548;29;20051;-84
2021/03/24 05:59:23;;;;;;;125.45;52.28;;;-1.50;99.90;;;;;;4937129;29;20079;-84
2021/03/24 06:01:55;;;;;;;;;;;-1.30;99.90;;;;;;4939684;29;20102;-85
2021/03/24 06:04:35;;;;;;;114.00;47.65;;;-1.20;99.90;;;;;;4938531;29;20333;-83
2021/03/24 06:07:40;;;;;;;113.53;46.33;;;-1.20;99.90;;;;;;4925057;29;20079;-84
2021/03/24 06:10:27;;;;;;;107.00;47.97;;;-1.20;99.90;;;;;;4922473;29;20052;-83
2021/03/24 06:13:21;;;;;;;102.68;45.08;;;-1.20;99.90;;;;;;4941251;29;20130;-84
2021/03/24 06:16:20;;;;;;;99.43;44.88;;;-1.20;99.90;;;;;;4912700;29;20146;-84
2021/03/24 06:22:26;;;;;;;93.55;42.78;;;-1.00;99.90;;;;;;4930807;29;20052;-84
2021/03/24 06:25:30;;;;;;;88.22;42.88;;;-0.50;99.90;;;;;;4923111;29;20129;-83
2021/03/24 06:28:18;;;;;;;76.88;39.92;;;0.10;99.90;;;;;;4930826;29;20483;-84
2021/03/24 06:31:22;;;;;;;73.63;36.65;;;0.40;99.90;;;;;;4916302;29;20064;-83
2021/03/24 06:34:26;;;;;;;69.93;37.55;;;0.90;99.90;;;;;;4937179;29;20048;-87
2021/03/24 06:37:18;;;;;;;72.82;36.88;;;1.40;99.90;;;;;;4925033;29;20043;-86
2021/03/24 06:39:55;;;;;;;56.03;33.15;;;1.80;99.90;;;;;;4923196;29;20489;-86
2021/03/24 06:46:52;;;;;;;37.35;23.52;;;2.90;99.90;;;;;;4896165;29;20059;-87
2021/03/24 06:50:11;;;;;;;43.53;25.90;;;3.50;99.90;;;;;;4887115;29;20056;-89
2021/03/24 06:53:48;;;;;;;40.22;24.40;;;3.70;99.90;;;;;;4823236;29;20066;-86
2021/03/24 06:56:37;;;;;;;33.72;21.88;;;3.80;99.90;;;;;;4818455;29;20226;-87
2021/03/24 06:59:36;;;;;;;33.58;21.35;;;4.00;99.90;;;;;;4838777;29;20051;-91
2021/03/24 07:02:23;;;;;;;38.53;24.33;;;4.10;99.90;;;;;;4840061;29;20131;-91
2021/03/24 07:05:11;;;;;;;;;;;;;;;;;;;;;
2021/03/24 07:08:38;;;;;;;20.83;13.63;;;4.70;99.90;;;;;;4851470;29;20058;-90
2021/03/24 07:11:28;;;;;;;;;;;;;;;;;;;;;
2021/03/24 07:14:19;;;;;;;30.10;18.38;;;5.50;99.90;;;;;;4794340;29;20051;-90
2021/03/24 07:17:25;;;;;;;32.53;19.70;;;5.70;99.90;;;;;;4831812;29;20056;-89
2021/03/24 07:20:53;;;;;;;29.45;18.98;;;6.10;99.90;;;;;;4807959;29;20354;-91
2021/03/24 07:24:21;;;;;;;34.58;20.67;;;6.40;99.90;;;;;;4788298;30;20137;-89
2021/03/24 07:27:31;;;;;;;28.98;19.67;;;6.40;99.90;;;;;;4790277;29;20042;-88
2021/03/24 07:30:14;;;;;;;26.60;18.45;;;6.50;99.90;;;;;;4865039;29;20430;-87
2021/03/24 07:33:12;;;;;;;32.35;17.63;;;6.80;99.90;;;;;;4929316;29;20051;-89
2021/03/24 07:36:16;;;;;;;29.73;18.67;;;6.60;99.90;;;;;;4920933;29;20052;-89
2021/03/24 07:39:21;;;;;;;26.90;18.30;;;6.50;99.90;;;;;;4905306;29;20131;-87
2021/03/24 07:42:25;;;;;;;24.58;17.30;;;6.30;99.90;;;;;;4891458;29;20383;-88
2021/03/24 07:45:28;;;;;;;32.45;19.00;;;6.40;99.90;;;;;;4915949;29;20055;-90
2021/03/24 07:48:02;;;;;;;28.50;18.70;;;6.80;99.90;;;;;;4923760;29;20051;-88
2021/03/24 07:51:15;;;;;;;29.25;19.35;;;7.00;99.90;;;;;;4938321;29;20082;-88
2021/03/24 07:53:56;;;;;;;31.08;17.80;;;7.30;99.90;;;;;;4936032;29;20062;-86
2021/03/24 07:56:28;;;;;;;26.00;16.83;;;7.90;99.90;;;;;;4921878;29;20051;-89
2021/03/24 07:59:25;;;;;;;27.88;17.38;;;8.00;98.50;;;;;;4938031;29;20055;-90
2021/03/24 08:02:35;;;;;;;;;;;;;;;;;;;;;
2021/03/24 08:09:50;;;;;;;26.83;17.58;;;8.40;96.70;;;;;;4861081;29;20053;-86
2021/03/24 08:12:48;;;;;;;24.65;15.52;;;9.20;93.70;;;;;;4860882;29;20797;-83
2021/03/24 08:15:51;;;;;;;25.65;16.27;;;10.00;89.10;;;;;;4863962;29;20045;-88
2021/03/24 08:22:33;;;;;;;26.40;15.85;;;11.30;76.30;;;;;;4869675;29;20085;-88
2021/03/24 08:25:44;;;;;;;26.98;16.02;;;11.30;78.30;;;;;;4937306;29;20064;-85
2021/03/24 08:29:06;;;;;;;23.33;15.27;;;11.80;73.30;;;;;;4946404;29;20107;-88
2021/03/24 08:32:07;;;;;;;;;;;;;;;;;;;;;
2021/03/24 08:42:48;;;;;;;20.80;13.93;;;14.40;61.50;;;;;;4806332;29;20058;-87
2021/03/24 08:45:33;;;;;;;19.20;13.35;;;14.60;58.70;;;;;;4876448;29;20064;-87
2021/03/24 08:48:09;;;;;;;20.20;14.68;;;15.10;58.20;;;;;;4913012;29;20055;-87
2021/03/24 08:51:03;;;;;;;20.80;13.80;;;15.30;56.00;;;;;;4919165;29;20335;-87
2021/03/24 08:53:40;;;;;;;21.92;14.75;;;15.10;55.40;;;;;;4934323;29;20052;-86
2021/03/24 08:56:38;;;;;;;21.20;14.68;;;14.70;55.60;;;;;;4929942;29;20430;-86
2021/03/24 09:00:15;;;;;;;22.42;15.63;;;14.40;59.70;;;;;;4932034;29;20048;-87
2021/03/24 09:03:17;;;;;;;24.92;15.40;;;15.10;56.90;;;;;;4878207;29;20067;-85
2021/03/24 09:06:26;;;;;;;20.42;14.05;;;15.30;56.30;;;;;;4931980;29;20047;-86
2021/03/24 09:13:35;;;;;;;20.52;14.48;;;16.10;53.50;;;;;;4839466;29;20054;-91
2021/03/24 09:20:23;;;;;;;18.95;14.25;;;16.70;53.30;;;;;;4854232;29;20132;-89
2021/03/24 09:23:27;;;;;;;24.67;15.80;;;17.00;50.90;;;;;;4874672;29;20045;-91
2021/03/24 09:26:20;;;;;;;22.45;14.45;;;17.40;51.00;;;;;;4926308;29;20051;-90
2021/03/24 09:29:44;;;;;;;22.58;14.55;;;17.50;49.90;;;;;;4923242;29;20142;-89
2021/03/24 09:32:48;;;;;;;23.90;14.85;;;17.70;49.20;;;;;;4843160;29;20069;-90
2021/03/24 09:36:01;;;;;;;19.98;14.00;;;17.50;49.60;;;;;;4899120;29;20032;-89
2021/03/24 09:42:52;;;;;;;23.25;14.85;;;17.30;49.20;;;;;;4847405;29;20548;-88
2021/03/24 09:45:39;;;;;;;19.48;13.57;;;17.30;49.20;;;;;;4836681;29;20070;-88
2021/03/24 09:48:32;;;;;;;19.15;13.43;;;17.60;48.60;;;;;;4900837;29;20045;-88
2021/03/24 09:51:25;;;;;;;19.48;14.13;;;17.40;49.30;;;;;;4901438;29;20451;-89
2021/03/24 09:54:06;;;;;;;16.55;12.43;;;17.70;47.40;;;;;;4879845;29;20236;-87
2021/03/24 09:57:19;;;;;;;19.20;12.73;;;18.30;47.90;;;;;;4883837;29;20116;-87
2021/03/24 10:12:27;;;;;;;16.55;12.20;;;18.60;46.30;;;;;;4795488;29;20571;-88
2021/03/24 10:15:34;;;;;;;13.95;10.98;;;18.90;45.70;;;;;;4775321;29;20058;-89
2021/03/24 10:19:06;;;;;;;;;;;;;;;;;;;;;
2021/03/24 10:22:21;;;;;;;19.42;11.68;;;20.50;42.80;;;;;;4864162;29;20057;-90
2021/03/24 10:25:02;;;;;;;13.77;10.80;;;20.50;43.50;;;;;;4884471;29;20143;-88
2021/03/24 10:27:53;;;;;;;16.85;11.23;;;20.70;41.30;;;;;;4888402;29;20059;-92
2021/03/24 10:31:02;;;;;;;;;;;;;;;;;;;;;
2021/03/24 10:34:42;;;;;;;15.35;11.10;;;20.90;41.50;;;;;;4882872;29;20572;-88
2021/03/24 10:38:15;;;;;;;14.38;11.00;;;21.10;40.80;;;;;;4781136;29;20115;-88
2021/03/24 10:41:29;;;;;;;15.25;11.85;;;21.30;42.00;;;;;;4722296;30;20535;-87
2021/03/24 10:44:21;;;;;;;17.30;11.43;;;21.30;41.00;;;;;;4749480;29;20050;-86
2021/03/24 10:47:16;;;;;;;16.90;10.57;;;21.40;40.60;;;;;;4791816;29;20127;-89
2021/03/24 10:50:13;;;;;;;13.55;10.65;;;21.40;41.20;;;;;;4789682;29;20127;-87
2021/03/24 10:53:29;;;;;;;;;;;;;;;;;;;;;
2021/03/24 10:56:43;;;;;;;13.68;10.75;;;22.50;42.50;;;;;;4807335;29;20051;-89
2021/03/24 11:00:09;;;;;;;;;;;;;;;;;;;;;
2021/03/24 11:02:49;;;;;;;14.57;10.20;;;23.70;36.00;;;;;;4869288;29;20061;-89
2021/03/24 11:05:30;;;;;;;15.30;9.73;;;23.10;36.10;;;;;;4911214;29;20067;-89
2021/03/24 11:24:27;;;;;;;8.50;5.82;;;24.50;33.10;;;;;;4800427;29;20230;-90
2021/03/24 11:27:11;;;;;;;7.13;5.65;;;24.60;33.80;;;;;;4794073;29;20061;-88
2021/03/24 11:29:46;;;;;;;9.00;7.20;;;24.60;32.50;;;;;;4895387;29;20051;-85
2021/03/24 11:32:27;;;;;;;10.50;8.18;;;25.50;31.20;;;;;;4919092;29;20139;-84
2021/03/24 11:35:27;;;;;;;9.10;7.55;;;25.70;31.30;;;;;;4932844;29;20047;-85
2021/03/24 11:38:13;;;;;;;12.25;8.02;;;25.70;30.70;;;;;;4915078;29;20048;-88
2021/03/24 11:40:45;;;;;;;9.70;7.40;;;25.20;32.20;;;;;;4934560;29;20044;-84
2021/03/24 11:43:28;;;;;;;10.27;7.45;;;25.50;31.50;;;;;;4936973;29;20075;-84
2021/03/24 11:46:19;;;;;;;9.18;7.13;;;25.30;31.00;;;;;;4937740;29;20135;-85
2021/03/24 11:49:23;;;;;;;11.68;8.30;;;25.40;31.20;;;;;;4919032;29;20048;-85
2021/03/24 11:52:06;;;;;;;10.30;8.20;;;25.10;32.80;;;;;;4920549;29;20044;-85
2021/03/24 11:54:46;;;;;;;10.02;7.47;;;25.40;31.40;;;;;;4928625;29;20107;-86
2021/03/24 11:57:38;;;;;;;13.70;8.30;;;25.30;31.50;;;;;;4920658;29;20052;-86
2021/03/24 12:00:40;;;;;;;9.88;7.43;;;24.50;32.50;;;;;;4936525;29;20198;-87
2021/03/24 12:03:40;;;;;;;8.90;7.43;;;24.30;33.90;;;;;;4919989;29;20056;-85
2021/03/24 12:06:22;;;;;;;12.35;8.98;;;24.70;34.80;;;;;;4919629;29;20040;-85
2021/03/24 12:09:12;;;;;;;8.63;7.32;;;25.60;32.20;;;;;;4920578;29;20126;-85
2021/03/24 12:11:41;;;;;;;9.80;7.00;;;26.00;29.40;;;;;;4918631;29;20147;-85
2021/03/24 12:14:34;;;;;;;11.00;8.07;;;25.60;29.40;;;;;;4919503;29;20150;-84
2021/03/24 12:17:34;;;;;;;9.70;7.28;;;25.00;30.00;;;;;;4929659;29;20131;-89
2021/03/24 12:20:12;;;;;;;12.93;7.43;;;25.20;30.20;;;;;;4935658;29;20149;-90
2021/03/24 12:22:48;;;;;;;11.95;7.57;;;25.30;30.30;;;;;;4939844;29;20055;-89
2021/03/24 12:25:26;;;;;;;9.90;7.53;;;25.40;32.20;;;;;;4947981;29;20496;-91
2021/03/24 12:28:03;;;;;;;9.45;7.22;;;24.40;30.60;;;;;;4933386;29;20121;-89
2021/03/24 12:30:34;;;;;;;11.63;7.93;;;23.90;31.20;;;;;;4943808;29;20052;-89
2021/03/24 12:33:24;;;;;;;9.32;7.70;;;23.80;31.50;;;;;;4937147;29;20048;-90
2021/03/24 12:36:08;;;;;;;9.25;7.25;;;24.40;31.60;;;;;;4935099;29;20083;-90
2021/03/24 12:38:42;;;;;;;10.25;7.65;;;24.80;31.10;;;;;;4940160;29;20055;-91
2021/03/24 12:41:09;;;;;;;11.57;7.53;;;24.90;31.30;;;;;;4938694;29;20051;-89
2021/03/24 12:43:43;;;;;;;12.27;7.45;;;25.50;30.60;;;;;;4934874;29;20052;-89
2021/03/24 12:46:16;;;;;;;9.45;7.55;;;26.00;29.30;;;;;;4930122;29;20075;-89
2021/03/24 12:49:02;;;;;;;7.75;6.47;;;26.10;29.50;;;;;;4927429;29;20077;-89
2021/03/24 12:51:37;;;;;;;11.82;7.03;;;26.60;29.60;;;;;;4913093;29;20132;-89
2021/03/24 12:54:13;;;;;;;8.35;6.90;;;26.90;28.80;;;;;;4937205;29;20048;-86
2021/03/24 12:56:39;;;;;;;8.52;6.10;;;26.60;28.20;;;;;;4932326;29;20047;-87
2021/03/24 12:59:13;;;;;;;8.38;7.13;;;25.70;28.80;;;;;;4926109;29;20507;-86
2021/03/24 13:01:54;;;;;;;10.55;6.75;;;24.60;29.70;;;;;;4934924;29;20055;-87
2021/03/24 13:04:27;;;;;;;9.50;6.60;;;24.50;29.00;;;;;;4918380;29;20119;-86
2021/03/24 13:07:17;;;;;;;9.43;6.53;;;24.80;29.40;;;;;;4936108;29;20150;-87
2021/03/24 13:10:08;;;;;;;8.43;5.60;;;25.40;29.80;;;;;;4933873;29;20151;-88
2021/03/24 13:13:05;;;;;;;8.57;5.78;;;26.20;28.70;;;;;;4932460;29;20064;-87
2021/03/24 13:15:49;;;;;;;7.25;5.47;;;26.20;27.50;;;;;;4935232;29;20055;-90
2021/03/24 13:18:30;;;;;;;6.72;5.05;;;26.60;26.30;;;;;;4923594;29;20110;-89
2021/03/24 13:21:34;;;;;;;7.10;4.95;;;26.10;26.50;;;;;;4922504;29;20048;-91
2021/03/24 13:24:35;;;;;;;5.75;4.22;;;25.80;25.80;;;;;;4936295;29;20107;-89
2021/03/24 13:27:24;;;;;;;3.50;3.10;;;26.30;27.00;;;;;;4934279;29;20083;-90
2021/03/24 13:30:15;;;;;;;4.18;2.88;;;25.90;25.10;;;;;;4920647;29;20114;-90
2021/03/24 13:32:55;;;;;;;4.45;3.58;;;25.80;26.20;;;;;;4940828;29;20099;-88
2021/03/24 13:35:40;;;;;;;5.38;3.40;;;26.20;25.20;;;;;;4941720;29;20051;-92
2021/03/24 13:38:43;;;;;;;3.08;2.78;;;26.70;25.80;;;;;;4939785;29;20118;-88
2021/03/24 13:41:12;;;;;;;3.97;2.97;;;25.80;26.10;;;;;;4920897;29;20040;-89
2021/03/24 13:44:03;;;;;;;6.93;3.72;;;25.50;27.60;;;;;;4940036;29;20075;-89
2021/03/24 13:46:55;;;;;;;4.38;2.83;;;25.90;27.10;;;;;;4923662;29;20094;-88
2021/03/24 13:49:43;;;;;;;4.70;2.55;;;27.00;24.30;;;;;;4936982;29;20443;-89
2021/03/24 13:52:25;;;;;;;;;;;26.80;23.90;;;;;;4937701;29;20059;-90
2021/03/24 13:55:18;;;;;;;4.32;2.85;;;27.20;25.10;;;;;;4921031;29;19978;-89
2021/03/24 13:57:58;;;;;;;4.68;2.63;;;27.30;23.70;;;;;;4893268;29;20056;-90
2021/03/24 14:01:07;;;;;;;3.25;2.65;;;26.70;23.80;;;;;;4939214;29;20106;-89
2021/03/24 14:03:46;;;;;;;3.33;2.42;;;25.50;25.20;;;;;;4939719;29;20052;-89
2021/03/24 14:06:19;;;;;;;4.68;3.25;;;25.40;25.50;;;;;;4923493;29;20083;-88
2021/03/24 14:09:49;;;;;;;3.35;2.30;;;25.10;25.00;;;;;;4935763;29;20048;-88
2021/03/24 14:12:57;;;;;;;3.10;2.78;;;25.20;25.10;;;;;;4888557;29;20045;-89
2021/03/24 14:15:40;;;;;;;2.65;2.40;;;25.90;24.50;;;;;;4933629;29;20126;-88
2021/03/24 14:18:12;;;;;;;3.88;2.45;;;26.00;26.40;;;;;;4923863;29;20063;-89
2021/03/24 14:21:08;;;;;;;5.18;2.53;;;25.90;24.10;;;;;;4923641;29;20048;-89
2021/03/24 14:23:38;;;;;;;3.55;2.15;;;26.20;23.70;;;;;;4933293;29;20419;-89
2021/03/24 14:26:18;;;;;;;2.33;1.80;;;26.40;24.10;;;;;;4937211;29;20107;-89
2021/03/24 14:29:26;;;;;;;2.45;1.73;;;26.40;25.00;;;;;;4950939;29;20040;-88
2021/03/24 14:32:12;;;;;;;4.20;1.90;;;26.30;22.80;;;;;;4955686;29;20100;-90
2021/03/24 14:35:10;;;;;;;1.92;1.58;;;25.80;23.10;;;;;;4951017;29;20047;-88
2021/03/24 14:38:03;;;;;;;2.20;1.90;;;25.80;24.30;;;;;;4946546;29;20119;-90
2021/03/24 14:40:44;;;;;;;2.60;1.70;;;25.90;23.20;;;;;;4924365;29;20055;-88
2021/03/24 14:43:35;;;;;;;2.10;1.50;;;25.50;23.20;;;;;;4924744;29;20047;-89
2021/03/24 14:46:04;;;;;;;2.63;1.30;;;25.90;22.80;;;;;;4941032;29;20296;-89
2021/03/24 14:48:59;;;;;;;1.45;1.00;;;26.10;22.30;;;;;;4937562;29;20039;-82
2021/03/24 14:51:54;;;;;;;1.52;1.20;;;26.40;22.10;;;;;;4924265;29;20073;-85
2021/03/24 14:54:28;;;;;;;1.60;1.30;;;26.60;23.00;;;;;;4921412;29;20067;-89
2021/03/24 14:57:24;;;;;;;3.65;1.55;;;26.00;24.00;;;;;;4922574;29;20067;-88
2021/03/24 14:59:55;;;;;;;4.03;1.30;;;25.80;23.70;;;;;;4939242;29;20071;-90
2021/03/24 15:02:33;;;;;;;2.40;1.77;;;26.10;22.10;;;;;;4947284;29;20063;-89
2021/03/24 15:05:07;;;;;;;1.90;1.63;;;25.90;22.30;;;;;;4924006;29;20465;-89
2021/03/24 15:07:39;;;;;;;5.88;1.27;;;25.10;22.40;;;;;;4950506;29;20079;-89
2021/03/24 15:10:16;;;;;;;3.30;1.58;;;24.30;23.20;;;;;;4950761;29;20055;-87
2021/03/24 15:12:53;;;;;;;1.75;1.25;;;24.50;22.80;;;;;;4943370;29;20131;-88
2021/03/24 15:15:52;;;;;;;3.03;1.70;;;23.80;23.30;;;;;;4924336;29;20051;-88
2021/03/24 15:18:39;;;;;;;1.40;1.00;;;23.80;23.70;;;;;;4936183;29;20047;-89
2021/03/24 15:21:47;;;;;;;1.30;1.20;;;23.90;23.10;;;;;;4938196;29;20052;-87
2021/03/24 15:24:45;;;;;;;2.05;1.05;;;24.10;22.70;;;;;;4930464;29;20123;-88